sensor_id;sensor_type;location;lat;lon;timestamp;temperature;humidity
9861;DHT22;4969;52.304;4.968;2023-05-02T00:01:54;12.92;77.70
9861;DHT22;4969;52.304;4.968;2023-05-02T00:04:21;12.78;78.89
9861;DHT22;4969;52.304;4.968;2023-05-02T00:06:48;12.40;78.07
9861;DHT22;4969;52.304;4.968;2023-05-02T00:09:17;12.61;80.78
9861;DHT22;4969;52.304;4.968;2023-05-02T00:11:44;12.80;77.12
9861;DHT22;4969;52.304;4.968;2023-05-02T00:14:11;12.17;79.32
9861;DHT22;4969;52.304;4.968;2023-05-02T00:16:37;12.23;80.16
9861;DHT22;4969;52.304;4.968;2023-05-02T00:19:04;12.27;80.23
9861;DHT22;4969;52.304;4.968;2023-05-02T00:21:30;12.64;79.38
9861;DHT22;4969;52.304;4.968;2023-05-02T00:23:57;12.69;78.79
9861;DHT22;4969;52.304;4.968;2023-05-02T00:26:25;12.09;79.21
9861;DHT22;4969;52.304;4.968;2023-05-02T00:28:53;11.99;79.57
9861;DHT22;4969;52.304;4.968;2023-05-02T00:31:19;12.78;79.58
9861;DHT22;4969;52.304;4.968;2023-05-02T00:33:46;12.19;79.36
9861;DHT22;4969;52.304;4.968;2023-05-02T00:36:13;12.50;78.84
9861;DHT22;4969;52.304;4.968;2023-05-02T00:38:40;12.20;78.44
9861;DHT22;4969;52.304;4.968;2023-05-02T00:41:06;11.89;79.93
9861;DHT22;4969;52.304;4.968;2023-05-02T00:43:34;11.95;80.69
9861;DHT22;4969;52.304;4.968;2023-05-02T00:46:04;12.19;80.84
9861;DHT22;4969;52.304;4.968;2023-05-02T00:48:30;11.47;79.72
9861;DHT22;4969;52.304;4.968;2023-05-02T00:50:57;11.97;80.01
9861;DHT22;4969;52.304;4.968;2023-05-02T00:53:24;12.17;79.85
9861;DHT22;4969;52.304;4.968;2023-05-02T00:55:50;12.37;78.42
9861;DHT22;4969;52.304;4.968;2023-05-02T00:58:18;12.50;75.76
9861;DHT22;4969;52.304;4.968;2023-05-02T01:00:58;11.90;77.25
9861;DHT22;4969;52.304;4.968;2023-05-02T01:03:35;11.75;79.32
9861;DHT22;4969;52.304;4.968;2023-05-02T01:06:12;11.75;77.30
9861;DHT22;4969;52.304;4.968;2023-05-02T01:08:47;11.92;76.97
9861;DHT22;4969;52.304;4.968;2023-05-02T01:11:23;11.79;78.70
9861;DHT22;4969;52.304;4.968;2023-05-02T01:13:55;11.41;78.50
9861;DHT22;4969;52.304;4.968;2023-05-02T01:16:26;12.16;74.79
9861;DHT22;4969;52.304;4.968;2023-05-02T01:18:54;11.95;75.84
9861;DHT22;4969;52.304;4.968;2023-05-02T01:21:21;12.12;72.68
9861;DHT22;4969;52.304;4.968;2023-05-02T01:23:56;11.50;74.30
9861;DHT22;4969;52.304;4.968;2023-05-02T01:26:31;11.65;73.50
9861;DHT22;4969;52.304;4.968;2023-05-02T01:29:03;12.17;75.67
9861;DHT22;4969;52.304;4.968;2023-05-02T01:31:34;12.55;71.37
9861;DHT22;4969;52.304;4.968;2023-05-02T01:34:02;12.68;72.53
9861;DHT22;4969;52.304;4.968;2023-05-02T01:36:31;12.03;74.04
9861;DHT22;4969;52.304;4.968;2023-05-02T01:39:00;11.76;72.63
9861;DHT22;4969;52.304;4.968;2023-05-02T01:41:29;11.83;73.96
9861;DHT22;4969;52.304;4.968;2023-05-02T01:43:58;11.57;72.43
9861;DHT22;4969;52.304;4.968;2023-05-02T01:46:29;11.95;76.77
9861;DHT22;4969;52.304;4.968;2023-05-02T01:48:58;11.67;74.89
9861;DHT22;4969;52.304;4.968;2023-05-02T01:51:29;11.52;71.83
9861;DHT22;4969;52.304;4.968;2023-05-02T01:53:58;11.14;73.64
9861;DHT22;4969;52.304;4.968;2023-05-02T01:56:26;11.74;76.90
9861;DHT22;4969;52.304;4.968;2023-05-02T01:58:55;11.61;73.39
9861;DHT22;4969;52.304;4.968;2023-05-02T02:01:22;11.81;75.37
9861;DHT22;4969;52.304;4.968;2023-05-02T02:03:53;11.57;71.09
9861;DHT22;4969;52.304;4.968;2023-05-02T02:06:20;12.13;71.85
9861;DHT22;4969;52.304;4.968;2023-05-02T02:08:47;11.79;72.19
9861;DHT22;4969;52.304;4.968;2023-05-02T02:11:17;11.69;72.39
9861;DHT22;4969;52.304;4.968;2023-05-02T02:13:48;11.93;70.90
9861;DHT22;4969;52.304;4.968;2023-05-02T02:16:23;11.28;71.99
9861;DHT22;4969;52.304;4.968;2023-05-02T02:18:55;11.47;74.50
9861;DHT22;4969;52.304;4.968;2023-05-02T02:21:24;11.41;71.94
9861;DHT22;4969;52.304;4.968;2023-05-02T02:23:54;11.72;74.58
9861;DHT22;4969;52.304;4.968;2023-05-02T02:26:22;12.30;72.77
9861;DHT22;4969;52.304;4.968;2023-05-02T02:28:49;12.55;70.27
9861;DHT22;4969;52.304;4.968;2023-05-02T02:31:16;11.99;70.50
9861;DHT22;4969;52.304;4.968;2023-05-02T02:33:43;11.65;70.71
9861;DHT22;4969;52.304;4.968;2023-05-02T02:36:14;11.34;72.58
9861;DHT22;4969;52.304;4.968;2023-05-02T02:38:47;11.61;71.90
9861;DHT22;4969;52.304;4.968;2023-05-02T02:41:22;11.65;70.53
9861;DHT22;4969;52.304;4.968;2023-05-02T02:43:59;11.41;69.33
9861;DHT22;4969;52.304;4.968;2023-05-02T02:46:33;11.48;73.78
9861;DHT22;4969;52.304;4.968;2023-05-02T02:49:13;11.06;72.50
9861;DHT22;4969;52.304;4.968;2023-05-02T02:51:45;12.37;72.03
9861;DHT22;4969;52.304;4.968;2023-05-02T02:54:16;12.17;67.46
9861;DHT22;4969;52.304;4.968;2023-05-02T02:56:48;11.36;68.28
9861;DHT22;4969;52.304;4.968;2023-05-02T02:59:21;11.19;69.71
9861;DHT22;4969;52.304;4.968;2023-05-02T03:02:06;10.96;70.08
9861;DHT22;4969;52.304;4.968;2023-05-02T03:04:35;11.41;73.03
9861;DHT22;4969;52.304;4.968;2023-05-02T03:07:04;11.83;72.73
9861;DHT22;4969;52.304;4.968;2023-05-02T03:09:40;12.24;70.00
9861;DHT22;4969;52.304;4.968;2023-05-02T03:12:06;11.92;67.74
9861;DHT22;4969;52.304;4.968;2023-05-02T03:14:33;11.44;68.20
9861;DHT22;4969;52.304;4.968;2023-05-02T03:17:00;11.12;69.21
9861;DHT22;4969;52.304;4.968;2023-05-02T03:19:26;11.55;69.63
9861;DHT22;4969;52.304;4.968;2023-05-02T03:21:53;11.95;68.76
9861;DHT22;4969;52.304;4.968;2023-05-02T03:24:21;11.62;64.62
9861;DHT22;4969;52.304;4.968;2023-05-02T03:26:47;11.69;66.69
9861;DHT22;4969;52.304;4.968;2023-05-02T03:29:14;11.16;66.66
9861;DHT22;4969;52.304;4.968;2023-05-02T03:31:40;11.09;67.79
9861;DHT22;4969;52.304;4.968;2023-05-02T03:34:07;10.42;69.87
9861;DHT22;4969;52.304;4.968;2023-05-02T03:36:34;11.00;68.55
9861;DHT22;4969;52.304;4.968;2023-05-02T03:39:00;11.38;74.33
9861;DHT22;4969;52.304;4.968;2023-05-02T03:41:28;11.52;70.26
9861;DHT22;4969;52.304;4.968;2023-05-02T03:43:55;11.20;67.60
9861;DHT22;4969;52.304;4.968;2023-05-02T03:46:21;11.90;70.24
9861;DHT22;4969;52.304;4.968;2023-05-02T03:48:48;11.65;73.06
9861;DHT22;4969;52.304;4.968;2023-05-02T03:51:14;10.81;70.37
9861;DHT22;4969;52.304;4.968;2023-05-02T03:53:41;10.89;70.97
9861;DHT22;4969;52.304;4.968;2023-05-02T03:56:08;11.03;70.03
9861;DHT22;4969;52.304;4.968;2023-05-02T03:58:36;11.03;74.83
9861;DHT22;4969;52.304;4.968;2023-05-02T04:01:03;11.41;68.87
9861;DHT22;4969;52.304;4.968;2023-05-02T04:03:29;10.75;73.21
9861;DHT22;4969;52.304;4.968;2023-05-02T04:05:56;11.48;74.51
9861;DHT22;4969;52.304;4.968;2023-05-02T04:08:23;11.30;71.11
9861;DHT22;4969;52.304;4.968;2023-05-02T04:10:50;10.75;71.64
9861;DHT22;4969;52.304;4.968;2023-05-02T04:13:17;11.14;77.05
9861;DHT22;4969;52.304;4.968;2023-05-02T04:15:45;11.26;72.45
9861;DHT22;4969;52.304;4.968;2023-05-02T04:18:11;10.58;72.28
9861;DHT22;4969;52.304;4.968;2023-05-02T04:20:38;10.72;71.23
9861;DHT22;4969;52.304;4.968;2023-05-02T04:23:07;11.40;73.86
9861;DHT22;4969;52.304;4.968;2023-05-02T04:25:34;10.67;70.59
9861;DHT22;4969;52.304;4.968;2023-05-02T04:28:01;10.42;72.00
9861;DHT22;4969;52.304;4.968;2023-05-02T04:30:27;10.34;72.47
9861;DHT22;4969;52.304;4.968;2023-05-02T04:32:55;10.26;71.79
9861;DHT22;4969;52.304;4.968;2023-05-02T04:35:22;10.45;75.76
9861;DHT22;4969;52.304;4.968;2023-05-02T04:37:48;10.26;71.55
9861;DHT22;4969;52.304;4.968;2023-05-02T04:40:15;9.99;71.67
9861;DHT22;4969;52.304;4.968;2023-05-02T04:42:42;9.78;73.45
9861;DHT22;4969;52.304;4.968;2023-05-02T04:45:08;10.12;74.42
9861;DHT22;4969;52.304;4.968;2023-05-02T04:47:35;9.48;72.52
9861;DHT22;4969;52.304;4.968;2023-05-02T04:50:03;9.55;72.61
9861;DHT22;4969;52.304;4.968;2023-05-02T04:52:30;9.52;72.74
9861;DHT22;4969;52.304;4.968;2023-05-02T04:54:57;10.14;73.04
9861;DHT22;4969;52.304;4.968;2023-05-02T04:57:23;9.91;71.13
9861;DHT22;4969;52.304;4.968;2023-05-02T04:59:50;10.54;73.54
9861;DHT22;4969;52.304;4.968;2023-05-02T05:02:16;10.06;70.55
9861;DHT22;4969;52.304;4.968;2023-05-02T05:04:43;10.06;70.94
9861;DHT22;4969;52.304;4.968;2023-05-02T05:07:11;9.99;71.54
9861;DHT22;4969;52.304;4.968;2023-05-02T05:09:38;10.60;70.73
9861;DHT22;4969;52.304;4.968;2023-05-02T05:12:04;10.27;71.33
9861;DHT22;4969;52.304;4.968;2023-05-02T05:14:31;10.14;70.45
9861;DHT22;4969;52.304;4.968;2023-05-02T05:16:58;9.72;71.45
9861;DHT22;4969;52.304;4.968;2023-05-02T05:19:24;9.89;71.42
9861;DHT22;4969;52.304;4.968;2023-05-02T05:21:52;9.65;70.54
9861;DHT22;4969;52.304;4.968;2023-05-02T05:24:20;9.78;71.53
9861;DHT22;4969;52.304;4.968;2023-05-02T05:26:46;9.92;73.26
9861;DHT22;4969;52.304;4.968;2023-05-02T05:29:13;9.43;69.93
9861;DHT22;4969;52.304;4.968;2023-05-02T05:31:39;10.19;70.51
9861;DHT22;4969;52.304;4.968;2023-05-02T05:34:07;9.96;69.52
9861;DHT22;4969;52.304;4.968;2023-05-02T05:36:33;9.59;68.80
9861;DHT22;4969;52.304;4.968;2023-05-02T05:39:00;10.09;70.55
9861;DHT22;4969;52.304;4.968;2023-05-02T05:41:28;9.77;68.56
9861;DHT22;4969;52.304;4.968;2023-05-02T05:43:55;9.77;68.29
9861;DHT22;4969;52.304;4.968;2023-05-02T05:46:22;10.78;73.24
9861;DHT22;4969;52.304;4.968;2023-05-02T05:48:48;9.95;68.25
9861;DHT22;4969;52.304;4.968;2023-05-02T05:51:15;9.69;68.16
9861;DHT22;4969;52.304;4.968;2023-05-02T05:53:41;9.78;67.10
9861;DHT22;4969;52.304;4.968;2023-05-02T05:56:08;9.62;68.01
9861;DHT22;4969;52.304;4.968;2023-05-02T05:58:36;9.66;67.54
9861;DHT22;4969;52.304;4.968;2023-05-02T06:01:03;9.83;67.09
9861;DHT22;4969;52.304;4.968;2023-05-02T06:03:30;10.21;74.92
9861;DHT22;4969;52.304;4.968;2023-05-02T06:05:57;10.02;66.60
9861;DHT22;4969;52.304;4.968;2023-05-02T06:08:23;10.36;75.68
9861;DHT22;4969;52.304;4.968;2023-05-02T06:10:50;10.86;69.81
9861;DHT22;4969;52.304;4.968;2023-05-02T06:13:17;10.34;67.76
9861;DHT22;4969;52.304;4.968;2023-05-02T06:15:44;10.17;68.27
9861;DHT22;4969;52.304;4.968;2023-05-02T06:18:11;10.08;68.11
9861;DHT22;4969;52.304;4.968;2023-05-02T06:20:38;9.71;68.44
9861;DHT22;4969;52.304;4.968;2023-05-02T06:23:05;9.34;69.16
9861;DHT22;4969;52.304;4.968;2023-05-02T06:25:32;9.83;71.61
9861;DHT22;4969;52.304;4.968;2023-05-02T06:27:59;9.59;67.61
9861;DHT22;4969;52.304;4.968;2023-05-02T06:30:26;9.69;72.71
9861;DHT22;4969;52.304;4.968;2023-05-02T06:32:54;9.45;68.17
9861;DHT22;4969;52.304;4.968;2023-05-02T06:35:20;9.72;69.71
9861;DHT22;4969;52.304;4.968;2023-05-02T06:37:47;9.93;67.26
9861;DHT22;4969;52.304;4.968;2023-05-02T06:40:14;9.79;69.94
9861;DHT22;4969;52.304;4.968;2023-05-02T06:42:40;9.82;68.09
9861;DHT22;4969;52.304;4.968;2023-05-02T06:45:07;9.69;69.10
9861;DHT22;4969;52.304;4.968;2023-05-02T06:47:34;9.79;66.77
9861;DHT22;4969;52.304;4.968;2023-05-02T06:50:02;10.19;75.19
9861;DHT22;4969;52.304;4.968;2023-05-02T06:52:28;10.40;66.37
9861;DHT22;4969;52.304;4.968;2023-05-02T06:54:55;10.38;65.27
9861;DHT22;4969;52.304;4.968;2023-05-02T06:57:23;10.17;68.39
9861;DHT22;4969;52.304;4.968;2023-05-02T06:59:49;10.42;66.96
9861;DHT22;4969;52.304;4.968;2023-05-02T07:02:16;10.33;63.90
9861;DHT22;4969;52.304;4.968;2023-05-02T07:04:42;10.06;66.69
9861;DHT22;4969;52.304;4.968;2023-05-02T07:07:10;10.09;64.90
9861;DHT22;4969;52.304;4.968;2023-05-02T07:09:37;10.00;65.80
9861;DHT22;4969;52.304;4.968;2023-05-02T07:12:04;9.73;66.56
9861;DHT22;4969;52.304;4.968;2023-05-02T07:14:31;9.93;66.35
9861;DHT22;4969;52.304;4.968;2023-05-02T07:16:57;10.16;66.78
9861;DHT22;4969;52.304;4.968;2023-05-02T07:19:24;10.24;71.09
9861;DHT22;4969;52.304;4.968;2023-05-02T07:21:50;9.86;66.01
9861;DHT22;4969;52.304;4.968;2023-05-02T07:24:18;9.64;65.39
9861;DHT22;4969;52.304;4.968;2023-05-02T07:26:45;9.88;67.72
9861;DHT22;4969;52.304;4.968;2023-05-02T07:29:11;10.78;63.73
9861;DHT22;4969;52.304;4.968;2023-05-02T07:31:38;10.75;69.04
9861;DHT22;4969;52.304;4.968;2023-05-02T07:34:04;10.28;64.27
9861;DHT22;4969;52.304;4.968;2023-05-02T07:36:31;10.28;64.59
9861;DHT22;4969;52.304;4.968;2023-05-02T07:38:58;10.49;70.03
9861;DHT22;4969;52.304;4.968;2023-05-02T07:41:26;10.36;62.57
9861;DHT22;4969;52.304;4.968;2023-05-02T07:43:52;10.30;67.42
9861;DHT22;4969;52.304;4.968;2023-05-02T07:46:20;10.51;66.17
9861;DHT22;4969;52.304;4.968;2023-05-02T07:48:46;10.24;63.72
9861;DHT22;4969;52.304;4.968;2023-05-02T07:51:13;10.21;62.70
9861;DHT22;4969;52.304;4.968;2023-05-02T07:53:39;10.81;61.51
9861;DHT22;4969;52.304;4.968;2023-05-02T07:56:06;10.36;60.01
9861;DHT22;4969;52.304;4.968;2023-05-02T07:58:35;10.19;59.07
9861;DHT22;4969;52.304;4.968;2023-05-02T08:01:01;10.41;60.18
9861;DHT22;4969;52.304;4.968;2023-05-02T08:03:28;10.58;60.59
9861;DHT22;4969;52.304;4.968;2023-05-02T08:05:55;10.64;59.19
9861;DHT22;4969;52.304;4.968;2023-05-02T08:08:22;10.92;57.50
9861;DHT22;4969;52.304;4.968;2023-05-02T08:10:49;11.65;62.96
9861;DHT22;4969;52.304;4.968;2023-05-02T08:13:15;10.82;56.02
9861;DHT22;4969;52.304;4.968;2023-05-02T08:15:43;10.68;58.35
9861;DHT22;4969;52.304;4.968;2023-05-02T08:18:10;10.93;55.05
9861;DHT22;4969;52.304;4.968;2023-05-02T08:20:36;10.76;54.97
9861;DHT22;4969;52.304;4.968;2023-05-02T08:23:03;10.89;58.73
9861;DHT22;4969;52.304;4.968;2023-05-02T08:25:30;10.96;54.44
9861;DHT22;4969;52.304;4.968;2023-05-02T08:27:56;10.89;54.41
9861;DHT22;4969;52.304;4.968;2023-05-02T08:30:23;11.31;53.68
9861;DHT22;4969;52.304;4.968;2023-05-02T08:32:51;10.91;57.44
9861;DHT22;4969;52.304;4.968;2023-05-02T08:35:17;10.72;55.45
9861;DHT22;4969;52.304;4.968;2023-05-02T08:37:44;10.61;54.95
9861;DHT22;4969;52.304;4.968;2023-05-02T08:40:11;10.85;55.20
9861;DHT22;4969;52.304;4.968;2023-05-02T08:42:41;10.95;52.81
9861;DHT22;4969;52.304;4.968;2023-05-02T08:45:10;11.21;57.08
9861;DHT22;4969;52.304;4.968;2023-05-02T08:47:39;11.96;51.62
9861;DHT22;4969;52.304;4.968;2023-05-02T08:50:08;12.02;50.54
9861;DHT22;4969;52.304;4.968;2023-05-02T08:52:35;13.06;49.46
9861;DHT22;4969;52.304;4.968;2023-05-02T08:55:02;12.09;48.53
9861;DHT22;4969;52.304;4.968;2023-05-02T08:57:29;11.34;49.92
9861;DHT22;4969;52.304;4.968;2023-05-02T08:59:56;10.92;55.20
9861;DHT22;4969;52.304;4.968;2023-05-02T09:02:37;10.82;53.70
9861;DHT22;4969;52.304;4.968;2023-05-02T09:05:10;11.17;57.48
9861;DHT22;4969;52.304;4.968;2023-05-02T09:07:43;11.68;54.64
9861;DHT22;4969;52.304;4.968;2023-05-02T09:10:11;11.65;57.45
9861;DHT22;4969;52.304;4.968;2023-05-02T09:12:37;11.00;54.30
9861;DHT22;4969;52.304;4.968;2023-05-02T09:15:11;10.74;55.58
9861;DHT22;4969;52.304;4.968;2023-05-02T09:17:40;10.58;56.40
9861;DHT22;4969;52.304;4.968;2023-05-02T09:20:09;10.54;55.28
9861;DHT22;4969;52.304;4.968;2023-05-02T09:22:36;11.00;59.72
9861;DHT22;4969;52.304;4.968;2023-05-02T09:25:04;10.95;53.56
9861;DHT22;4969;52.304;4.968;2023-05-02T09:27:47;11.37;52.53
9861;DHT22;4969;52.304;4.968;2023-05-02T09:30:22;11.03;53.19
9861;DHT22;4969;52.304;4.968;2023-05-02T09:32:49;11.03;52.68
9861;DHT22;4969;52.304;4.968;2023-05-02T09:35:18;11.85;59.78
9861;DHT22;4969;52.304;4.968;2023-05-02T09:37:50;12.68;69.16
9861;DHT22;4969;52.304;4.968;2023-05-02T09:40:17;12.58;62.40
9861;DHT22;4969;52.304;4.968;2023-05-02T09:42:44;14.31;65.06
9861;DHT22;4969;52.304;4.968;2023-05-02T09:45:19;16.86;54.53
9861;DHT22;4969;52.304;4.968;2023-05-02T09:47:46;17.04;56.05
9861;DHT22;4969;52.304;4.968;2023-05-02T09:50:30;14.21;44.69
9861;DHT22;4969;52.304;4.968;2023-05-02T09:53:01;11.90;48.09
9861;DHT22;4969;52.304;4.968;2023-05-02T09:55:28;11.62;49.51
9861;DHT22;4969;52.304;4.968;2023-05-02T09:57:54;11.75;48.40
9861;DHT22;4969;52.304;4.968;2023-05-02T10:00:21;11.92;48.48
9861;DHT22;4969;52.304;4.968;2023-05-02T10:02:49;12.50;55.74
9861;DHT22;4969;52.304;4.968;2023-05-02T10:05:18;12.76;46.87
9861;DHT22;4969;52.304;4.968;2023-05-02T10:07:46;12.85;46.71
9861;DHT22;4969;52.304;4.968;2023-05-02T10:10:16;12.71;50.14
9861;DHT22;4969;52.304;4.968;2023-05-02T10:12:44;12.06;50.55
9861;DHT22;4969;52.304;4.968;2023-05-02T10:15:13;12.50;48.47
9861;DHT22;4969;52.304;4.968;2023-05-02T10:17:46;12.16;48.64
9861;DHT22;4969;52.304;4.968;2023-05-02T10:20:21;12.37;49.67
9861;DHT22;4969;52.304;4.968;2023-05-02T10:22:49;12.48;48.08
9861;DHT22;4969;52.304;4.968;2023-05-02T10:25:16;12.54;48.01
9861;DHT22;4969;52.304;4.968;2023-05-02T10:27:43;12.65;46.47
9861;DHT22;4969;52.304;4.968;2023-05-02T10:30:12;12.13;46.52
9861;DHT22;4969;52.304;4.968;2023-05-02T10:32:39;12.23;50.77
9861;DHT22;4969;52.304;4.968;2023-05-02T10:35:07;11.75;47.79
9861;DHT22;4969;52.304;4.968;2023-05-02T10:37:35;12.86;57.63
9861;DHT22;4969;52.304;4.968;2023-05-02T10:40:05;11.67;49.03
9861;DHT22;4969;52.304;4.968;2023-05-02T10:42:37;12.17;52.39
9861;DHT22;4969;52.304;4.968;2023-05-02T10:45:05;12.47;50.36
9861;DHT22;4969;52.304;4.968;2023-05-02T10:47:36;12.36;48.21
9861;DHT22;4969;52.304;4.968;2023-05-02T10:50:02;12.45;51.13
9861;DHT22;4969;52.304;4.968;2023-05-02T10:52:32;12.57;47.85
9861;DHT22;4969;52.304;4.968;2023-05-02T10:55:19;12.47;56.73
9861;DHT22;4969;52.304;4.968;2023-05-02T10:58:19;11.90;46.84
9861;DHT22;4969;52.304;4.968;2023-05-02T11:00:47;11.85;47.91
9861;DHT22;4969;52.304;4.968;2023-05-02T11:03:14;12.16;46.66
9861;DHT22;4969;52.304;4.968;2023-05-02T11:06:04;12.86;46.35
9861;DHT22;4969;52.304;4.968;2023-05-02T11:08:32;12.34;46.47
9861;DHT22;4969;52.304;4.968;2023-05-02T11:13:59;11.69;49.15
9861;DHT22;4969;52.304;4.968;2023-05-02T11:16:26;12.04;55.87
9861;DHT22;4969;52.304;4.968;2023-05-02T11:18:59;13.02;62.01
9861;DHT22;4969;52.304;4.968;2023-05-02T11:21:27;13.03;44.81
9861;DHT22;4969;52.304;4.968;2023-05-02T11:27:36;12.88;61.78
9861;DHT22;4969;52.304;4.968;2023-05-02T11:30:06;12.50;46.07
9861;DHT22;4969;52.304;4.968;2023-05-02T11:33:13;12.65;46.51
9861;DHT22;4969;52.304;4.968;2023-05-02T11:35:44;12.21;47.40
9861;DHT22;4969;52.304;4.968;2023-05-02T11:38:13;12.38;47.55
9861;DHT22;4969;52.304;4.968;2023-05-02T11:40:40;13.62;59.55
9861;DHT22;4969;52.304;4.968;2023-05-02T11:43:17;13.12;50.36
9861;DHT22;4969;52.304;4.968;2023-05-02T11:45:45;13.20;50.01
9861;DHT22;4969;52.304;4.968;2023-05-02T11:48:12;13.99;58.38
9861;DHT22;4969;52.304;4.968;2023-05-02T11:50:43;14.42;48.92
9861;DHT22;4969;52.304;4.968;2023-05-02T11:53:10;14.16;53.98
9861;DHT22;4969;52.304;4.968;2023-05-02T11:55:43;14.57;52.48
9861;DHT22;4969;52.304;4.968;2023-05-02T11:58:12;15.92;50.36
9861;DHT22;4969;52.304;4.968;2023-05-02T12:00:39;17.65;47.65
9861;DHT22;4969;52.304;4.968;2023-05-02T12:03:07;16.20;38.20
9861;DHT22;4969;52.304;4.968;2023-05-02T12:05:34;15.31;42.37
9861;DHT22;4969;52.304;4.968;2023-05-02T12:08:01;15.27;43.46
9861;DHT22;4969;52.304;4.968;2023-05-02T12:10:35;14.17;49.15
9861;DHT22;4969;52.304;4.968;2023-05-02T12:13:03;14.06;45.63
9861;DHT22;4969;52.304;4.968;2023-05-02T12:15:30;14.48;44.54
9861;DHT22;4969;52.304;4.968;2023-05-02T12:17:57;15.28;44.17
9861;DHT22;4969;52.304;4.968;2023-05-02T12:20:25;14.33;45.01
9861;DHT22;4969;52.304;4.968;2023-05-02T12:22:52;15.21;51.27
9861;DHT22;4969;52.304;4.968;2023-05-02T12:25:18;15.41;41.90
9861;DHT22;4969;52.304;4.968;2023-05-02T12:27:58;14.92;44.18
9861;DHT22;4969;52.304;4.968;2023-05-02T12:30:25;16.26;41.77
9861;DHT22;4969;52.304;4.968;2023-05-02T12:32:55;16.88;44.19
9861;DHT22;4969;52.304;4.968;2023-05-02T12:35:22;16.72;43.01
9861;DHT22;4969;52.304;4.968;2023-05-02T12:37:51;15.64;42.08
9861;DHT22;4969;52.304;4.968;2023-05-02T12:40:18;15.72;45.18
9861;DHT22;4969;52.304;4.968;2023-05-02T12:42:57;16.12;41.56
9861;DHT22;4969;52.304;4.968;2023-05-02T12:45:24;15.93;47.33
9861;DHT22;4969;52.304;4.968;2023-05-02T12:47:53;15.55;41.62
9861;DHT22;4969;52.304;4.968;2023-05-02T12:50:20;15.20;42.95
9861;DHT22;4969;52.304;4.968;2023-05-02T12:52:47;15.86;44.81
9861;DHT22;4969;52.304;4.968;2023-05-02T12:55:16;15.50;43.14
9861;DHT22;4969;52.304;4.968;2023-05-02T12:57:43;15.31;49.67
9861;DHT22;4969;52.304;4.968;2023-05-02T13:00:11;15.44;42.61
9861;DHT22;4969;52.304;4.968;2023-05-02T13:02:37;14.44;45.23
9861;DHT22;4969;52.304;4.968;2023-05-02T13:05:12;13.86;52.61
9861;DHT22;4969;52.304;4.968;2023-05-02T13:07:39;14.05;44.90
9861;DHT22;4969;52.304;4.968;2023-05-02T13:10:06;12.29;54.94
9861;DHT22;4969;52.304;4.968;2023-05-02T13:12:35;12.92;50.03
9861;DHT22;4969;52.304;4.968;2023-05-02T13:15:02;16.00;46.46
9861;DHT22;4969;52.304;4.968;2023-05-02T13:17:29;16.31;41.36
9861;DHT22;4969;52.304;4.968;2023-05-02T13:19:56;13.69;45.46
9861;DHT22;4969;52.304;4.968;2023-05-02T13:22:22;13.40;51.84
9861;DHT22;4969;52.304;4.968;2023-05-02T13:24:49;13.09;48.89
9861;DHT22;4969;52.304;4.968;2023-05-02T13:27:16;14.07;46.25
9861;DHT22;4969;52.304;4.968;2023-05-02T13:29:44;12.73;48.29
9861;DHT22;4969;52.304;4.968;2023-05-02T13:32:11;12.89;48.85
9861;DHT22;4969;52.304;4.968;2023-05-02T13:34:37;14.71;57.12
9861;DHT22;4969;52.304;4.968;2023-05-02T13:37:04;14.52;44.81
9861;DHT22;4969;52.304;4.968;2023-05-02T13:39:30;15.02;49.92
9861;DHT22;4969;52.304;4.968;2023-05-02T13:41:57;13.65;53.51
9861;DHT22;4969;52.304;4.968;2023-05-02T13:44:24;12.97;47.41
9861;DHT22;4969;52.304;4.968;2023-05-02T13:46:51;14.64;45.54
9861;DHT22;4969;52.304;4.968;2023-05-02T13:49:18;14.24;46.12
9861;DHT22;4969;52.304;4.968;2023-05-02T13:51:45;15.02;43.80
9861;DHT22;4969;52.304;4.968;2023-05-02T13:54:12;13.16;46.45
9861;DHT22;4969;52.304;4.968;2023-05-02T13:56:39;14.18;47.39
9861;DHT22;4969;52.304;4.968;2023-05-02T13:59:06;13.37;59.58
9861;DHT22;4969;52.304;4.968;2023-05-02T14:01:33;13.55;51.79
9861;DHT22;4969;52.304;4.968;2023-05-02T14:04:01;13.17;48.41
9861;DHT22;4969;52.304;4.968;2023-05-02T14:06:32;14.48;48.62
9861;DHT22;4969;52.304;4.968;2023-05-02T14:08:59;13.88;48.47
9861;DHT22;4969;52.304;4.968;2023-05-02T14:11:26;15.06;45.62
9861;DHT22;4969;52.304;4.968;2023-05-02T14:13:52;13.48;46.94
9861;DHT22;4969;52.304;4.968;2023-05-02T14:16:21;13.55;50.67
9861;DHT22;4969;52.304;4.968;2023-05-02T14:18:48;14.31;60.17
9861;DHT22;4969;52.304;4.968;2023-05-02T14:21:16;15.16;50.27
9861;DHT22;4969;52.304;4.968;2023-05-02T14:23:43;13.61;48.53
9861;DHT22;4969;52.304;4.968;2023-05-02T14:26:09;13.40;46.94
9861;DHT22;4969;52.304;4.968;2023-05-02T14:28:36;14.92;46.08
9861;DHT22;4969;52.304;4.968;2023-05-02T14:31:03;15.47;51.41
9861;DHT22;4969;52.304;4.968;2023-05-02T14:33:30;14.72;47.66
9861;DHT22;4969;52.304;4.968;2023-05-02T14:35:57;14.64;43.50
9861;DHT22;4969;52.304;4.968;2023-05-02T14:38:25;14.10;58.06
9861;DHT22;4969;52.304;4.968;2023-05-02T14:40:51;14.18;56.53
9861;DHT22;4969;52.304;4.968;2023-05-02T14:43:18;14.50;48.93
9861;DHT22;4969;52.304;4.968;2023-05-02T14:45:44;12.80;47.86
9861;DHT22;4969;52.304;4.968;2023-05-02T14:48:11;12.41;48.99
9861;DHT22;4969;52.304;4.968;2023-05-02T14:50:38;12.47;53.81
9861;DHT22;4969;52.304;4.968;2023-05-02T14:53:05;13.71;46.44
9861;DHT22;4969;52.304;4.968;2023-05-02T14:55:36;12.58;49.17
9861;DHT22;4969;52.304;4.968;2023-05-02T14:58:03;13.37;49.76
9861;DHT22;4969;52.304;4.968;2023-05-02T15:00:32;13.54;48.68
9861;DHT22;4969;52.304;4.968;2023-05-02T15:02:59;15.06;63.22
9861;DHT22;4969;52.304;4.968;2023-05-02T15:05:25;13.78;45.99
9861;DHT22;4969;52.304;4.968;2023-05-02T15:07:52;14.33;59.44
9861;DHT22;4969;52.304;4.968;2023-05-02T15:10:18;16.08;44.09
9861;DHT22;4969;52.304;4.968;2023-05-02T15:12:46;17.83;51.69
9861;DHT22;4969;52.304;4.968;2023-05-02T15:15:15;17.51;54.69
9861;DHT22;4969;52.304;4.968;2023-05-02T15:17:41;16.96;46.06
9861;DHT22;4969;52.304;4.968;2023-05-02T15:20:09;15.90;42.58
9861;DHT22;4969;52.304;4.968;2023-05-02T15:22:36;17.35;54.73
9861;DHT22;4969;52.304;4.968;2023-05-02T15:25:03;16.54;51.45
9861;DHT22;4969;52.304;4.968;2023-05-02T15:27:30;16.54;40.13
9861;DHT22;4969;52.304;4.968;2023-05-02T15:29:58;16.14;50.79
9861;DHT22;4969;52.304;4.968;2023-05-02T15:32:25;15.47;43.57
9861;DHT22;4969;52.304;4.968;2023-05-02T15:34:52;14.78;44.67
9861;DHT22;4969;52.304;4.968;2023-05-02T15:37:18;14.67;44.39
9861;DHT22;4969;52.304;4.968;2023-05-02T15:39:45;12.67;48.96
9861;DHT22;4969;52.304;4.968;2023-05-02T15:42:12;13.23;47.30
9861;DHT22;4969;52.304;4.968;2023-05-02T15:44:38;12.10;50.65
9861;DHT22;4969;52.304;4.968;2023-05-02T15:47:06;13.38;60.86
9861;DHT22;4969;52.304;4.968;2023-05-02T15:49:33;15.75;47.05
9861;DHT22;4969;52.304;4.968;2023-05-02T15:52:00;15.86;50.24
9861;DHT22;4969;52.304;4.968;2023-05-02T15:54:26;15.00;54.69
9861;DHT22;4969;52.304;4.968;2023-05-02T15:56:53;13.27;47.60
9861;DHT22;4969;52.304;4.968;2023-05-02T15:59:20;13.71;47.43
9861;DHT22;4969;52.304;4.968;2023-05-02T16:01:46;14.05;58.00
9861;DHT22;4969;52.304;4.968;2023-05-02T16:04:14;15.93;50.72
9861;DHT22;4969;52.304;4.968;2023-05-02T16:06:41;16.14;45.71
9861;DHT22;4969;52.304;4.968;2023-05-02T16:09:07;15.72;47.98
9861;DHT22;4969;52.304;4.968;2023-05-02T16:11:34;14.88;45.18
9861;DHT22;4969;52.304;4.968;2023-05-02T16:14:00;13.75;48.70
9861;DHT22;4969;52.304;4.968;2023-05-02T16:16:28;13.37;53.71